createdAt,value
2018-10-18T00:00:52.440Z,30.68
2018-10-18T00:05:33.160Z,24.70
2018-10-18T00:10:13.039Z,28.00
2018-10-18T00:14:54.365Z,21.33
2018-10-18T00:19:35.645Z,22.17
2018-10-18T00:24:15.570Z,29.97
2018-10-18T00:28:55.707Z,77.43
2018-10-18T00:33:35.609Z,24.63
2018-10-18T00:38:15.644Z,23.00
2018-10-18T00:42:55.621Z,25.00
2018-10-18T00:47:35.866Z,21.97
2018-10-18T00:52:16.728Z,20.60
2018-10-18T00:56:56.759Z,20.70
2018-10-18T01:01:36.671Z,20.93
2018-10-18T01:06:16.964Z,22.87
2018-10-18T01:10:57.962Z,21.77
2018-10-18T01:15:39.274Z,21.27
2018-10-18T01:20:20.944Z,21.73
2018-10-18T01:25:00.633Z,21.17
2018-10-18T01:29:41.201Z,26.93
2018-10-18T01:34:21.125Z,21.90
2018-10-18T01:39:02.064Z,32.43
2018-10-18T01:43:43.467Z,28.33
2018-10-18T01:48:23.457Z,22.10
2018-10-18T01:53:03.704Z,19.40
2018-10-18T01:57:44.228Z,20.37
2018-10-18T02:02:23.976Z,21.60
2018-10-18T02:07:03.896Z,22.83
2018-10-18T02:11:43.852Z,19.70
2018-10-18T02:16:23.796Z,22.17
2018-10-18T02:21:04.272Z,19.20
2018-10-18T02:25:45.436Z,21.47
2018-10-18T02:30:25.220Z,20.33
2018-10-18T02:35:06.183Z,18.93
2018-10-18T02:39:46.093Z,21.43
2018-10-18T02:44:25.830Z,20.67
2018-10-18T02:49:07.629Z,22.57
2018-10-18T02:53:47.456Z,21.07
2018-10-18T02:58:27.489Z,19.83
2018-10-18T03:03:07.771Z,21.93
2018-10-18T03:07:48.350Z,23.30
2018-10-18T03:12:28.057Z,20.40
2018-10-18T03:17:08.523Z,21.93
2018-10-18T03:21:48.380Z,25.87
2018-10-18T03:26:28.173Z,22.83
2018-10-18T03:31:09.204Z,20.07
2018-10-18T03:35:49.773Z,20.57
2018-10-18T03:40:29.928Z,20.07
2018-10-18T03:45:09.850Z,21.17
2018-10-18T03:49:50.224Z,19.83
2018-10-18T03:54:30.034Z,21.27
2018-10-18T03:59:09.819Z,20.53
2018-10-18T04:03:49.672Z,21.70
2018-10-18T04:08:29.469Z,19.20
2018-10-18T04:13:09.477Z,20.47
2018-10-18T04:17:49.473Z,17.10
2018-10-18T04:22:29.320Z,20.27
2018-10-18T04:27:09.257Z,19.80
2018-10-18T04:31:49.255Z,17.67
2018-10-18T04:36:29.072Z,19.70
2018-10-18T04:41:08.825Z,19.27
2018-10-18T04:45:49.452Z,22.50
2018-10-18T04:50:29.521Z,20.37
2018-10-18T04:55:10.132Z,22.00
2018-10-18T04:59:50.007Z,22.57
2018-10-18T05:04:31.373Z,22.67
2018-10-18T05:09:13.076Z,20.77
2018-10-18T05:13:54.798Z,23.73
2018-10-18T05:18:34.416Z,29.47
2018-10-18T05:23:14.429Z,22.93
2018-10-18T05:27:54.831Z,23.37
2018-10-18T05:32:35.397Z,40.87
2018-10-18T05:37:15.483Z,133.03
2018-10-18T05:41:56.007Z,91.90
2018-10-18T05:46:36.608Z,57.37
2018-10-18T05:51:16.960Z,50.03
2018-10-18T05:55:57.657Z,35.83
2018-10-18T06:00:37.590Z,34.50
2018-10-18T06:05:18.308Z,31.20
2018-10-18T06:09:58.280Z,25.40
2018-10-18T06:14:38.232Z,24.27
2018-10-18T06:19:18.139Z,22.30
2018-10-18T06:23:58.139Z,25.63
2018-10-18T06:28:38.020Z,27.03
2018-10-18T06:33:18.023Z,33.07
2018-10-18T06:37:57.932Z,27.73
2018-10-18T06:42:38.108Z,23.00
2018-10-18T06:47:17.906Z,21.10
2018-10-18T06:51:57.733Z,22.77
2018-10-18T06:56:37.708Z,20.25
2018-10-18T07:01:17.524Z,20.32
2018-10-18T07:05:57.569Z,21.37
2018-10-18T07:10:37.534Z,18.30
2018-10-18T07:15:17.416Z,16.67
2018-10-18T07:19:57.356Z,24.60
2018-10-18T07:24:37.217Z,19.80
2018-10-18T07:29:17.084Z,17.87
2018-10-18T07:33:56.952Z,17.05
2018-10-18T07:38:36.987Z,57.75
2018-10-18T07:43:17.045Z,23.85
2018-10-18T07:47:56.841Z,26.12
2018-10-18T07:52:37.298Z,25.10
2018-10-18T07:57:17.306Z,21.95
2018-10-18T08:01:57.307Z,20.02
2018-10-18T08:06:37.307Z,18.95
2018-10-18T08:11:17.212Z,17.50
2018-10-18T08:15:57.102Z,17.55
2018-10-18T08:20:36.951Z,21.68
2018-10-18T08:25:16.866Z,23.92
2018-10-18T08:29:56.648Z,26.45
2018-10-18T08:34:36.384Z,28.75
2018-10-18T08:39:16.506Z,21.35
2018-10-18T08:43:58.355Z,24.63
2018-10-18T08:48:38.217Z,28.12
2018-10-18T08:53:18.160Z,29.32
2018-10-18T08:57:58.125Z,28.00
2018-10-18T09:02:38.164Z,26.15
2018-10-18T09:07:18.111Z,27.10
2018-10-18T09:11:57.940Z,28.57
2018-10-18T09:16:38.125Z,29.07
2018-10-18T09:21:18.279Z,30.12
2018-10-18T09:25:58.609Z,27.07
2018-10-18T09:30:40.634Z,28.30
2018-10-18T09:35:20.676Z,26.73
2018-10-18T09:40:01.220Z,26.68
2018-10-18T09:44:41.916Z,25.10
2018-10-18T09:49:22.012Z,27.25
2018-10-18T09:54:03.463Z,26.07
2018-10-18T09:58:43.700Z,24.72
2018-10-18T10:03:23.725Z,25.17
2018-10-18T10:08:03.573Z,23.98
2018-10-18T10:12:43.510Z,21.62
2018-10-18T10:17:23.280Z,20.32
2018-10-18T10:22:03.148Z,19.35
2018-10-18T10:26:43.207Z,20.35
2018-10-18T10:31:22.944Z,17.07
2018-10-18T10:36:02.936Z,17.40
2018-10-18T10:40:42.707Z,18.25
2018-10-18T10:45:22.853Z,17.60
2018-10-18T10:50:02.965Z,17.42
2018-10-18T10:54:43.121Z,17.67
2018-10-18T10:59:23.408Z,17.65
2018-10-18T11:04:03.683Z,16.60
2018-10-18T11:08:43.890Z,18.20
2018-10-18T11:13:24.108Z,13.95
2018-10-18T11:18:04.245Z,23.52
2018-10-18T11:22:44.642Z,14.98
2018-10-18T11:27:24.424Z,14.47
2018-10-18T11:32:04.526Z,16.75
2018-10-18T11:36:44.392Z,16.07
2018-10-18T11:41:24.301Z,19.37
2018-10-18T11:46:04.475Z,18.35
2018-10-18T11:50:44.685Z,17.37
2018-10-18T11:55:24.543Z,14.98
2018-10-18T12:00:05.481Z,14.30
2018-10-18T12:04:45.408Z,14.10
2018-10-18T12:09:25.323Z,15.48
2018-10-18T12:14:06.226Z,16.20
2018-10-18T12:18:46.056Z,21.62
2018-10-18T12:23:26.722Z,21.35
2018-10-18T12:28:06.652Z,17.32
2018-10-18T12:32:46.460Z,15.43
2018-10-18T12:37:26.324Z,13.18
2018-10-18T12:42:06.440Z,14.63
2018-10-18T12:46:46.332Z,13.43
2018-10-18T12:51:26.256Z,15.55
2018-10-18T12:56:06.376Z,13.98
2018-10-18T13:00:46.408Z,13.18
2018-10-18T13:05:26.461Z,14.47
2018-10-18T13:10:07.780Z,12.70
2018-10-18T13:14:47.585Z,13.00
2018-10-18T13:19:27.480Z,13.50
2018-10-18T13:24:07.292Z,13.98
2018-10-18T13:28:47.195Z,15.60
2018-10-18T13:33:27.080Z,13.03
2018-10-18T13:38:07.032Z,14.45
2018-10-18T13:42:46.860Z,14.45
2018-10-18T13:47:26.779Z,17.73
2018-10-18T13:52:06.611Z,13.30
2018-10-18T13:56:46.712Z,15.32
2018-10-18T14:01:27.339Z,14.38
2018-10-18T14:06:07.580Z,15.83
2018-10-18T14:10:47.570Z,15.08
2018-10-18T14:15:27.535Z,15.78
2018-10-18T14:20:07.999Z,14.70
2018-10-18T14:24:47.816Z,14.20
2018-10-18T14:29:27.705Z,14.65
2018-10-18T14:34:08.107Z,17.40
2018-10-18T14:38:48.033Z,13.55
2018-10-18T14:43:28.128Z,16.80
2018-10-18T14:48:08.125Z,15.20
2018-10-18T14:52:48.407Z,13.72
2018-10-18T14:57:28.300Z,16.87
2018-10-18T15:02:08.436Z,20.70
2018-10-18T15:06:48.385Z,16.37
2018-10-18T15:11:28.365Z,21.42
2018-10-18T15:16:08.590Z,15.13
2018-10-18T15:20:48.909Z,16.45
2018-10-18T15:25:29.178Z,26.73
2018-10-18T15:30:09.906Z,30.05
2018-10-18T15:34:49.907Z,31.40
2018-10-18T15:39:29.916Z,31.20
2018-10-18T15:44:10.565Z,33.90
2018-10-18T15:48:50.530Z,36.35
2018-10-18T15:53:30.552Z,42.73
2018-10-18T15:58:10.650Z,43.35
2018-10-18T16:02:50.523Z,45.17
2018-10-18T16:07:30.515Z,42.15
2018-10-18T16:12:10.352Z,48.28
2018-10-18T16:16:50.179Z,45.30
2018-10-18T16:21:30.241Z,44.30
2018-10-18T16:26:10.401Z,46.05
2018-10-18T16:30:50.237Z,44.45
2018-10-18T16:35:30.064Z,45.50
2018-10-18T16:40:10.064Z,43.45
2018-10-18T16:44:50.096Z,44.25
2018-10-18T16:49:29.973Z,46.88
2018-10-18T16:54:09.940Z,45.15
2018-10-18T16:58:49.844Z,43.83
2018-10-18T17:03:29.616Z,52.15
2018-10-18T17:08:09.341Z,44.05
2018-10-18T17:12:49.172Z,49.25
2018-10-18T17:17:29.086Z,45.70
2018-10-18T17:22:08.824Z,48.45
2018-10-18T17:26:48.673Z,48.02
2018-10-18T17:31:28.454Z,46.77
2018-10-18T17:36:08.403Z,50.48
2018-10-18T17:40:48.210Z,51.33
2018-10-18T17:45:28.148Z,54.53
2018-10-18T17:50:08.598Z,52.03
2018-10-18T17:54:48.357Z,51.65
2018-10-18T17:59:28.693Z,55.38
2018-10-18T18:04:08.671Z,55.30
2018-10-18T18:08:48.563Z,59.77
2018-10-18T18:13:28.548Z,61.80
2018-10-18T18:18:08.528Z,61.35
2018-10-18T18:22:48.368Z,67.92
2018-10-18T18:27:28.262Z,69.03
2018-10-18T18:32:08.120Z,69.25
2018-10-18T18:36:47.860Z,67.85
2018-10-18T18:41:27.768Z,77.05
2018-10-18T18:46:07.981Z,74.90
2018-10-18T18:50:47.877Z,75.95
2018-10-18T18:55:27.788Z,75.87
2018-10-18T19:00:09.181Z,77.22
2018-10-18T19:04:49.163Z,79.47
2018-10-18T19:09:28.901Z,74.95
2018-10-18T19:14:09.272Z,80.30
2018-10-18T19:18:49.352Z,77.95
2018-10-18T19:23:29.252Z,82.65
2018-10-18T19:28:09.260Z,82.37
2018-10-18T19:32:49.476Z,76.60
2018-10-18T19:37:29.382Z,77.67
2018-10-18T19:42:09.222Z,71.07
2018-10-18T19:46:49.124Z,69.10
2018-10-18T19:51:29.041Z,62.40
2018-10-18T19:56:08.997Z,62.83
2018-10-18T20:00:48.855Z,59.83
2018-10-18T20:05:28.741Z,66.55
2018-10-18T20:10:09.021Z,69.72
2018-10-18T20:14:51.918Z,79.45
2018-10-18T20:19:34.002Z,73.85
2018-10-18T20:24:14.166Z,77.08
2018-10-18T20:28:53.873Z,82.75
2018-10-18T20:33:37.436Z,85.07
2018-10-18T20:38:17.369Z,98.07
2018-10-18T20:42:57.252Z,80.05
2018-10-18T20:47:37.275Z,80.42
2018-10-18T20:52:19.568Z,76.30
2018-10-18T20:56:59.599Z,78.50
2018-10-18T21:01:39.245Z,78.57
2018-10-18T21:06:19.129Z,66.80
2018-10-18T21:10:58.923Z,82.08
2018-10-18T21:15:38.799Z,69.37
2018-10-18T21:20:18.587Z,60.35
2018-10-18T21:24:58.494Z,60.90
2018-10-18T21:29:38.432Z,75.78
2018-10-18T21:34:18.679Z,72.65
2018-10-18T21:38:58.606Z,85.25
2018-10-18T21:43:38.568Z,71.53
2018-10-18T21:48:19.589Z,137.30
2018-10-18T21:52:59.537Z,165.22
2018-10-18T21:57:39.284Z,166.25
2018-10-18T22:02:19.239Z,186.00
2018-10-18T22:06:59.080Z,135.57
2018-10-18T22:11:39.076Z,155.90
2018-10-18T22:16:19.015Z,168.47
2018-10-18T22:20:58.844Z,115.05
2018-10-18T22:25:38.819Z,158.12
2018-10-18T22:30:18.557Z,146.45
2018-10-18T22:34:58.560Z,184.97
2018-10-18T22:39:38.291Z,146.53
2018-10-18T22:44:18.233Z,128.23
2018-10-18T22:48:57.964Z,147.57
2018-10-18T22:53:37.936Z,173.57
2018-10-18T22:58:17.652Z,134.95
2018-10-18T23:02:57.512Z,144.90
2018-10-18T23:07:37.217Z,151.02
2018-10-18T23:12:17.235Z,190.75
2018-10-18T23:16:57.297Z,162.75
2018-10-18T23:21:37.176Z,131.57
2018-10-18T23:26:17.053Z,107.03
2018-10-18T23:30:56.792Z,91.95
2018-10-18T23:35:36.636Z,89.17
2018-10-18T23:40:16.523Z,87.37
2018-10-18T23:44:56.305Z,75.25
2018-10-18T23:49:36.192Z,99.87
2018-10-18T23:54:16.260Z,72.42
2018-10-18T23:58:56.271Z,69.50
